createdAt,value
2022-09-25T00:01:22.774Z,9.00
2022-09-25T00:03:50.616Z,8.99
2022-09-25T00:06:21.747Z,8.99
2022-09-25T00:08:50.106Z,9.00
2022-09-25T00:11:22.474Z,8.98
2022-09-25T00:13:51.586Z,8.98
2022-09-25T00:16:23.012Z,8.98
2022-09-25T00:19:09.730Z,8.92
2022-09-25T00:21:37.931Z,8.92
2022-09-25T00:24:08.709Z,8.96
2022-09-25T00:26:39.492Z,9.00
2022-09-25T00:29:08.634Z,8.94
2022-09-25T00:31:36.631Z,8.92
2022-09-25T00:34:05.725Z,8.91
2022-09-25T00:36:33.911Z,8.89
2022-09-25T00:39:02.016Z,8.91
2022-09-25T00:41:32.181Z,8.90
2022-09-25T00:44:02.952Z,8.86
2022-09-25T00:46:35.988Z,8.82
2022-09-25T00:49:10.141Z,8.83
2022-09-25T00:51:41.322Z,8.84
2022-09-25T00:54:16.023Z,8.76
2022-09-25T00:56:47.752Z,8.77
2022-09-25T00:59:19.905Z,8.77
2022-09-25T01:01:47.815Z,8.77
2022-09-25T01:04:16.612Z,8.77
2022-09-25T01:06:44.866Z,8.80
2022-09-25T01:09:12.465Z,8.76
2022-09-25T01:11:40.840Z,8.79
2022-09-25T01:14:10.520Z,8.82
2022-09-25T01:16:51.999Z,8.76
2022-09-25T01:19:22.864Z,8.80
2022-09-25T01:22:00.782Z,8.83
2022-09-25T01:24:55.782Z,8.79
2022-09-25T01:27:32.255Z,8.79
2022-09-25T01:30:20.786Z,8.74
2022-09-25T01:33:00.592Z,8.74
2022-09-25T01:36:04.230Z,8.74
2022-09-25T01:38:41.559Z,8.75
2022-09-25T01:41:14.363Z,8.73
2022-09-25T01:44:13.670Z,8.72
2022-09-25T01:46:47.563Z,8.76
2022-09-25T01:49:25.110Z,8.76
2022-09-25T01:51:56.002Z,8.76
2022-09-25T01:54:53.208Z,8.74
2022-09-25T01:57:29.709Z,8.71
2022-09-25T02:00:08.723Z,8.68
2022-09-25T02:02:57.550Z,8.67
2022-09-25T02:05:35.172Z,8.65
2022-09-25T02:08:08.421Z,8.65
2022-09-25T02:10:43.559Z,8.64
2022-09-25T02:13:17.698Z,8.64
2022-09-25T02:15:56.443Z,8.61
2022-09-25T02:18:43.717Z,8.58
2022-09-25T02:21:12.452Z,8.58
2022-09-25T02:23:41.407Z,8.60
2022-09-25T02:26:16.551Z,8.54
2022-09-25T02:28:45.641Z,8.56
2022-09-25T02:31:16.925Z,8.52
2022-09-25T02:33:44.676Z,8.53
2022-09-25T02:36:24.261Z,8.56
2022-09-25T02:38:55.054Z,8.53
2022-09-25T02:41:56.377Z,8.49
2022-09-25T02:44:50.927Z,8.44
2022-09-25T02:47:43.555Z,8.47
2022-09-25T02:50:46.563Z,8.46
2022-09-25T02:53:23.370Z,8.46
2022-09-25T02:55:59.192Z,8.43
2022-09-25T02:58:33.443Z,8.48
2022-09-25T03:01:06.018Z,8.48
2022-09-25T03:03:35.151Z,8.43
2022-09-25T03:06:03.849Z,8.39
2022-09-25T03:08:38.271Z,8.34
2022-09-25T03:11:09.894Z,8.36
2022-09-25T03:13:38.308Z,8.38
2022-09-25T03:16:16.262Z,8.33
2022-09-25T03:18:43.985Z,8.34
2022-09-25T03:21:12.084Z,8.34
2022-09-25T03:23:40.103Z,8.37
2022-09-25T03:26:07.909Z,8.31
2022-09-25T03:28:35.557Z,8.27
2022-09-25T03:31:10.535Z,8.28
2022-09-25T03:33:41.246Z,8.31
2022-09-25T03:36:22.275Z,8.31
2022-09-25T03:38:52.751Z,8.30
2022-09-25T03:41:22.593Z,8.27
2022-09-25T03:43:52.059Z,8.19
2022-09-25T03:46:23.060Z,8.20
2022-09-25T03:48:55.180Z,8.16
2022-09-25T03:51:24.610Z,8.19
2022-09-25T03:53:53.676Z,8.14
2022-09-25T03:56:24.415Z,8.09
2022-09-25T03:58:56.375Z,8.12
2022-09-25T04:01:26.654Z,8.16
2022-09-25T04:03:54.711Z,8.13
2022-09-25T04:06:25.657Z,8.17
2022-09-25T04:08:53.878Z,8.14
2022-09-25T04:11:24.314Z,8.13
2022-09-25T04:13:53.106Z,8.14
2022-09-25T04:16:23.200Z,8.21
2022-09-25T04:18:51.375Z,8.23
2022-09-25T04:21:19.259Z,8.28
2022-09-25T04:24:07.752Z,8.34
2022-09-25T04:26:35.857Z,8.41
2022-09-25T04:29:04.142Z,8.42
2022-09-25T04:31:32.866Z,8.45
2022-09-25T04:34:03.135Z,8.50
2022-09-25T04:36:30.688Z,8.55
2022-09-25T04:38:58.197Z,8.59
2022-09-25T04:41:25.791Z,8.61
2022-09-25T04:43:53.262Z,8.63
2022-09-25T04:46:22.679Z,8.66
2022-09-25T04:48:51.058Z,8.66
2022-09-25T04:51:18.623Z,8.67
2022-09-25T04:53:46.811Z,8.64
2022-09-25T04:56:16.226Z,8.63
2022-09-25T04:58:49.762Z,8.64
2022-09-25T05:01:20.442Z,8.66
2022-09-25T05:03:50.331Z,8.71
2022-09-25T05:06:18.536Z,8.74
2022-09-25T05:08:49.766Z,8.79
2022-09-25T05:11:18.057Z,8.86
2022-09-25T05:13:49.122Z,8.94
2022-09-25T05:16:16.762Z,8.98
2022-09-25T05:18:44.329Z,9.08
2022-09-25T05:21:12.222Z,9.16
2022-09-25T05:23:39.736Z,9.20
2022-09-25T05:26:07.291Z,9.27
2022-09-25T05:28:35.937Z,9.31
2022-09-25T05:31:04.537Z,9.32
2022-09-25T05:33:34.283Z,9.40
2022-09-25T05:36:03.095Z,9.48
2022-09-25T05:38:33.003Z,9.57
2022-09-25T05:41:04.958Z,9.68
2022-09-25T05:43:34.396Z,9.74
2022-09-25T05:46:02.021Z,9.83
2022-09-25T05:48:29.625Z,9.88
2022-09-25T05:50:58.268Z,10.00
2022-09-25T05:53:26.897Z,10.05
2022-09-25T05:55:59.916Z,10.12
2022-09-25T05:58:29.638Z,10.18
2022-09-25T06:01:04.544Z,10.25
2022-09-25T06:03:32.761Z,10.30
2022-09-25T06:06:02.315Z,10.31
2022-09-25T06:08:35.771Z,10.40
2022-09-25T06:11:05.343Z,10.50
2022-09-25T06:13:34.881Z,10.58
2022-09-25T06:16:05.685Z,10.63
2022-09-25T06:18:34.143Z,10.68
2022-09-25T06:21:04.866Z,10.73
2022-09-25T06:23:33.172Z,10.79
2022-09-25T06:26:05.811Z,10.88
2022-09-25T06:28:34.567Z,10.90
2022-09-25T06:31:04.363Z,10.99
2022-09-25T06:33:32.947Z,11.09
2022-09-25T06:36:01.246Z,11.19
2022-09-25T06:38:29.433Z,11.35
2022-09-25T06:41:00.410Z,11.44
2022-09-25T06:43:28.959Z,11.55
2022-09-25T06:45:59.936Z,11.61
2022-09-25T06:48:27.970Z,11.69
2022-09-25T06:50:57.839Z,11.73
2022-09-25T06:53:26.060Z,11.81
2022-09-25T06:55:57.914Z,11.88
2022-09-25T06:58:26.974Z,11.89
2022-09-25T07:00:56.276Z,11.94
2022-09-25T07:03:42.610Z,12.03
2022-09-25T07:06:15.213Z,12.04
2022-09-25T07:08:48.222Z,12.13
2022-09-25T07:11:22.546Z,12.21
2022-09-25T07:13:55.166Z,12.29
2022-09-25T07:16:25.591Z,12.35
2022-09-25T07:18:58.535Z,12.44
2022-09-25T07:21:29.454Z,12.53
2022-09-25T07:23:58.976Z,12.66
2022-09-25T07:26:30.082Z,12.65
2022-09-25T07:29:03.773Z,12.76
2022-09-25T07:31:33.738Z,12.82
2022-09-25T07:34:05.952Z,12.92
2022-09-25T07:36:34.010Z,12.92
2022-09-25T07:39:01.831Z,13.00
2022-09-25T07:41:29.751Z,13.12
2022-09-25T07:44:24.283Z,13.21
2022-09-25T07:46:46.850Z,13.30
2022-09-25T07:49:14.849Z,13.37
2022-09-25T07:51:42.303Z,13.41
2022-09-25T07:54:10.789Z,13.53
2022-09-25T07:56:38.805Z,13.48
2022-09-25T07:59:08.769Z,13.54
2022-09-25T08:01:41.222Z,13.62
2022-09-25T08:04:11.313Z,13.64
2022-09-25T08:06:39.722Z,13.65
2022-09-25T08:09:10.649Z,13.73
2022-09-25T08:11:38.851Z,13.67
2022-09-25T08:14:07.110Z,13.77
2022-09-25T08:16:34.919Z,13.85
2022-09-25T08:19:02.536Z,13.98
2022-09-25T08:21:30.149Z,14.15
2022-09-25T08:23:57.726Z,14.24
2022-09-25T08:26:25.396Z,14.31
2022-09-25T08:28:53.023Z,14.40
2022-09-25T08:31:20.759Z,14.51
2022-09-25T08:33:50.208Z,14.50
2022-09-25T08:36:18.330Z,14.70
2022-09-25T08:38:46.777Z,14.82
2022-09-25T08:41:24.536Z,14.86
2022-09-25T08:43:55.495Z,14.69
2022-09-25T08:47:19.695Z,14.67
2022-09-25T08:50:05.102Z,14.64
2022-09-25T08:52:34.383Z,14.73
2022-09-25T08:55:02.113Z,14.71
2022-09-25T08:57:37.240Z,14.77
2022-09-25T09:00:09.578Z,14.82
2022-09-25T09:02:41.558Z,14.77
2022-09-25T09:05:25.065Z,14.94
2022-09-25T09:07:59.485Z,14.89
2022-09-25T09:10:53.411Z,14.93
2022-09-25T09:13:27.682Z,14.95
2022-09-25T09:16:01.553Z,15.10
2022-09-25T09:18:32.019Z,15.14
2022-09-25T09:21:09.450Z,15.21
2022-09-25T09:24:04.319Z,15.19
2022-09-25T09:26:56.769Z,15.44
2022-09-25T09:29:42.941Z,15.58
2022-09-25T09:32:19.478Z,15.29
2022-09-25T09:35:11.678Z,15.15
2022-09-25T09:37:59.169Z,15.19
2022-09-25T09:40:47.314Z,15.23
2022-09-25T09:43:55.028Z,15.42
2022-09-25T09:46:25.183Z,15.64
2022-09-25T09:49:02.412Z,15.71
2022-09-25T09:51:40.694Z,15.60
2022-09-25T09:54:22.496Z,15.45
2022-09-25T09:56:52.085Z,15.21
2022-09-25T09:59:23.388Z,15.19
2022-09-25T10:02:40.748Z,15.05
2022-09-25T10:05:29.162Z,14.90
2022-09-25T10:07:57.082Z,14.83
2022-09-25T10:10:39.294Z,14.86
2022-09-25T10:13:17.251Z,14.89
2022-09-25T10:16:12.378Z,15.02
2022-09-25T10:19:04.336Z,14.94
2022-09-25T10:21:42.343Z,15.01
2022-09-25T10:24:10.763Z,15.04
2022-09-25T10:26:40.005Z,15.12
2022-09-25T10:29:10.660Z,15.20
2022-09-25T10:31:40.836Z,15.30
2022-09-25T10:34:17.783Z,15.28
2022-09-25T10:36:51.401Z,15.15
2022-09-25T10:39:44.859Z,15.12
2022-09-25T10:42:40.136Z,15.23
2022-09-25T10:45:22.822Z,15.27
2022-09-25T10:48:09.806Z,15.38
2022-09-25T10:50:38.043Z,15.51
2022-09-25T10:53:07.647Z,15.69
2022-09-25T10:55:40.192Z,15.76
2022-09-25T10:58:10.662Z,15.71
2022-09-25T11:00:53.268Z,15.62
2022-09-25T11:03:26.722Z,15.59
2022-09-25T11:06:09.298Z,15.74
2022-09-25T11:08:41.368Z,15.98
2022-09-25T11:11:10.585Z,15.84
2022-09-25T11:13:51.224Z,15.64
2022-09-25T11:16:19.869Z,15.55
2022-09-25T11:19:05.008Z,15.42
2022-09-25T11:21:44.374Z,15.37
2022-09-25T11:24:33.638Z,15.38
2022-09-25T11:27:15.738Z,15.49
2022-09-25T11:30:06.714Z,15.64
2022-09-25T11:32:54.781Z,15.62
2022-09-25T11:35:34.976Z,15.58
2022-09-25T11:38:45.084Z,15.68
2022-09-25T11:41:55.943Z,15.83
2022-09-25T11:44:47.804Z,16.07
2022-09-25T11:47:20.701Z,15.99
2022-09-25T11:49:53.393Z,16.11
2022-09-25T11:52:44.964Z,16.17
2022-09-25T11:55:49.793Z,16.13
2022-09-25T11:58:17.265Z,16.07
2022-09-25T12:01:06.186Z,16.06
2022-09-25T12:04:21.649Z,16.03
2022-09-25T12:06:55.814Z,16.09
2022-09-25T12:09:35.609Z,16.38
2022-09-25T12:12:21.765Z,16.68
2022-09-25T12:15:09.185Z,16.88
2022-09-25T12:17:55.265Z,17.05
2022-09-25T12:20:49.510Z,16.86
2022-09-25T12:23:42.385Z,16.65
2022-09-25T12:26:18.578Z,16.36
2022-09-25T12:28:58.340Z,16.21
2022-09-25T12:31:53.616Z,16.22
2022-09-25T12:34:52.651Z,16.31
2022-09-25T12:37:33.604Z,16.56
2022-09-25T12:40:12.273Z,16.62
2022-09-25T12:43:00.759Z,16.39
2022-09-25T12:45:49.955Z,16.51
2022-09-25T12:48:20.614Z,16.54
2022-09-25T12:50:55.356Z,16.50
2022-09-25T12:53:32.024Z,16.40
2022-09-25T12:56:08.520Z,16.39
2022-09-25T12:59:04.353Z,16.69
2022-09-25T13:01:49.756Z,16.70
2022-09-25T13:04:28.305Z,16.64
2022-09-25T13:07:09.701Z,16.60
2022-09-25T13:09:47.641Z,16.50
2022-09-25T13:12:28.263Z,16.37
2022-09-25T13:15:37.433Z,16.32
2022-09-25T13:18:08.192Z,16.30
2022-09-25T13:20:37.777Z,16.34
2022-09-25T13:23:14.501Z,16.25
2022-09-25T13:26:00.527Z,16.22
2022-09-25T13:28:36.765Z,16.27
2022-09-25T13:31:12.028Z,16.29
2022-09-25T13:34:00.249Z,16.35
2022-09-25T13:36:38.251Z,16.53
2022-09-25T13:39:35.492Z,16.59
2022-09-25T13:42:25.550Z,16.61
2022-09-25T13:45:07.969Z,16.48
2022-09-25T13:47:49.856Z,16.51
2022-09-25T13:50:22.769Z,16.45
2022-09-25T13:53:14.798Z,16.44
2022-09-25T13:56:02.547Z,16.38
2022-09-25T13:58:52.051Z,16.29
2022-09-25T14:01:33.050Z,16.25
2022-09-25T14:04:01.199Z,16.23
2022-09-25T14:06:38.351Z,16.19
2022-09-25T14:09:23.715Z,16.14
2022-09-25T14:12:33.092Z,16.13
2022-09-25T14:15:06.159Z,16.06
2022-09-25T14:17:36.088Z,16.00
2022-09-25T14:20:08.472Z,16.01
2022-09-25T14:22:49.100Z,15.99
2022-09-25T14:25:37.558Z,16.12
2022-09-25T14:28:19.420Z,16.17
2022-09-25T14:31:06.638Z,16.17
2022-09-25T14:33:56.747Z,16.19
2022-09-25T14:36:50.458Z,16.17
2022-09-25T14:39:39.872Z,16.16
2022-09-25T14:42:31.815Z,16.06
2022-09-25T14:45:21.244Z,16.06
2022-09-25T14:47:49.854Z,16.00
2022-09-25T14:50:25.319Z,15.94
2022-09-25T14:52:58.194Z,15.86
2022-09-25T14:55:35.533Z,15.82
2022-09-25T14:58:09.231Z,15.80
2022-09-25T15:00:46.929Z,15.66
2022-09-25T15:03:18.980Z,15.60
2022-09-25T15:05:49.142Z,15.67
2022-09-25T15:08:30.430Z,15.58
2022-09-25T15:11:18.257Z,15.49
2022-09-25T15:13:48.403Z,15.50
2022-09-25T15:16:41.502Z,15.45
2022-09-25T15:19:23.031Z,15.44
2022-09-25T15:21:54.095Z,15.36
2022-09-25T15:24:30.758Z,15.30
2022-09-25T15:27:06.699Z,15.22
2022-09-25T15:29:37.773Z,15.17
2022-09-25T15:32:06.027Z,15.13
2022-09-25T15:34:34.046Z,15.11
2022-09-25T15:37:27.863Z,15.05
2022-09-25T15:39:56.276Z,15.03
2022-09-25T15:42:23.811Z,14.96
2022-09-25T15:44:52.328Z,14.88
2022-09-25T15:47:29.113Z,14.86
2022-09-25T15:49:56.911Z,14.81
2022-09-25T15:52:32.500Z,14.76
2022-09-25T15:55:02.842Z,14.72
2022-09-25T15:57:32.226Z,14.64
2022-09-25T16:00:25.403Z,14.58
2022-09-25T16:03:22.138Z,14.50
2022-09-25T16:05:52.534Z,14.46
2022-09-25T16:08:32.213Z,14.49
2022-09-25T16:11:09.356Z,14.48
2022-09-25T16:13:41.723Z,14.49
2022-09-25T16:16:30.205Z,14.43
2022-09-25T16:19:00.104Z,14.43
2022-09-25T16:21:29.291Z,14.37
2022-09-25T16:24:00.173Z,14.33
2022-09-25T16:26:36.827Z,14.28
2022-09-25T16:29:24.496Z,14.26
2022-09-25T16:31:54.055Z,14.21
2022-09-25T16:34:26.952Z,14.23
2022-09-25T16:36:58.278Z,14.20
2022-09-25T16:39:30.419Z,14.11
2022-09-25T16:42:00.131Z,14.04
2022-09-25T16:44:27.998Z,14.04
2022-09-25T16:46:56.189Z,14.06
2022-09-25T16:49:25.053Z,13.99
2022-09-25T16:51:54.848Z,13.92
2022-09-25T16:54:31.755Z,13.89
2022-09-25T16:57:00.363Z,13.90
2022-09-25T16:59:28.560Z,13.84
2022-09-25T17:02:05.054Z,13.82
2022-09-25T17:04:35.919Z,13.80
2022-09-25T17:07:03.767Z,13.76
2022-09-25T17:09:31.570Z,13.74
2022-09-25T17:12:08.629Z,13.69
2022-09-25T17:14:38.035Z,13.71
2022-09-25T17:17:06.084Z,13.68
2022-09-25T17:19:33.657Z,13.68
2022-09-25T17:22:01.819Z,13.70
2022-09-25T17:24:30.576Z,13.63
2022-09-25T17:26:58.376Z,13.60
2022-09-25T17:29:27.175Z,13.58
2022-09-25T17:31:55.137Z,13.53
2022-09-25T17:34:28.652Z,13.54
2022-09-25T17:36:57.959Z,13.54
2022-09-25T17:39:25.492Z,13.54
2022-09-25T17:41:53.157Z,13.47
2022-09-25T17:44:23.345Z,13.42
2022-09-25T17:46:51.911Z,13.36
2022-09-25T17:49:19.876Z,13.33
2022-09-25T17:51:47.699Z,13.29
2022-09-25T17:54:17.374Z,13.25
2022-09-25T17:56:46.370Z,13.25
2022-09-25T17:59:15.193Z,13.30
2022-09-25T18:01:42.864Z,13.30
2022-09-25T18:04:28.445Z,13.30
2022-09-25T18:06:56.844Z,13.32
2022-09-25T18:09:24.384Z,13.34
2022-09-25T18:11:52.706Z,13.38
2022-09-25T18:14:21.056Z,13.35
2022-09-25T18:16:48.708Z,13.36
2022-09-25T18:19:38.179Z,13.42
2022-09-25T18:22:19.321Z,13.45
2022-09-25T18:24:56.695Z,13.47
2022-09-25T18:27:28.772Z,13.49
2022-09-25T18:29:56.786Z,13.49
2022-09-25T18:32:24.461Z,13.49
2022-09-25T18:34:52.305Z,13.48
2022-09-25T18:37:20.659Z,13.48
2022-09-25T18:39:48.320Z,13.48
2022-09-25T18:42:15.952Z,13.48
2022-09-25T18:44:44.584Z,13.47
2022-09-25T18:47:12.222Z,13.52
2022-09-25T18:49:39.870Z,13.54
2022-09-25T18:52:07.516Z,13.52
2022-09-25T18:54:35.453Z,13.52
2022-09-25T18:57:03.142Z,13.54
2022-09-25T18:59:30.827Z,13.54
2022-09-25T19:02:00.162Z,13.56
2022-09-25T19:04:28.792Z,13.59
2022-09-25T19:06:56.603Z,13.62
2022-09-25T19:09:27.269Z,13.63
2022-09-25T19:11:56.065Z,13.64
2022-09-25T19:14:24.239Z,13.63
2022-09-25T19:16:53.229Z,13.60
2022-09-25T19:19:21.165Z,13.56
2022-09-25T19:21:48.920Z,13.57
2022-09-25T19:24:18.424Z,13.56
2022-09-25T19:26:48.141Z,13.56
2022-09-25T19:29:15.910Z,13.57
2022-09-25T19:31:43.621Z,13.62
2022-09-25T19:34:12.348Z,13.65
2022-09-25T19:36:40.845Z,13.64
2022-09-25T19:39:08.533Z,13.69
2022-09-25T19:41:38.079Z,13.70
2022-09-25T19:44:13.641Z,13.69
2022-09-25T19:46:43.362Z,13.72
2022-09-25T19:49:12.723Z,13.77
2022-09-25T19:51:41.724Z,13.74
2022-09-25T19:54:11.647Z,13.75
2022-09-25T19:56:40.991Z,13.73
2022-09-25T19:59:13.101Z,13.74
2022-09-25T20:01:43.108Z,13.73
2022-09-25T20:04:17.965Z,13.72
2022-09-25T20:06:48.677Z,13.75
2022-09-25T20:09:16.545Z,13.74
2022-09-25T20:11:45.291Z,13.71
2022-09-25T20:14:13.547Z,13.75
2022-09-25T20:16:41.152Z,13.73
2022-09-25T20:19:09.124Z,13.68
2022-09-25T20:21:39.484Z,13.67
2022-09-25T20:24:09.306Z,13.66
2022-09-25T20:26:38.202Z,13.69
2022-09-25T20:29:12.607Z,13.68
2022-09-25T20:31:44.648Z,13.69
2022-09-25T20:34:14.946Z,13.67
2022-09-25T20:36:42.933Z,13.68
2022-09-25T20:39:10.608Z,13.65
2022-09-25T20:41:38.816Z,13.64
2022-09-25T20:44:07.044Z,13.61
2022-09-25T20:46:34.705Z,13.62
2022-09-25T20:49:03.690Z,13.63
2022-09-25T20:51:34.930Z,13.68
2022-09-25T20:54:05.988Z,13.70
2022-09-25T20:56:36.465Z,13.64
2022-09-25T20:59:04.916Z,13.67
2022-09-25T21:01:36.837Z,13.64
2022-09-25T21:04:08.205Z,13.68
2022-09-25T21:06:39.087Z,13.69
2022-09-25T21:09:26.290Z,13.69
2022-09-25T21:11:54.306Z,13.67
2022-09-25T21:14:24.803Z,13.66
2022-09-25T21:16:52.387Z,13.65
2022-09-25T21:19:21.491Z,13.62
2022-09-25T21:21:49.168Z,13.69
2022-09-25T21:24:20.572Z,13.64
2022-09-25T21:26:48.559Z,13.63
2022-09-25T21:29:17.420Z,13.71
2022-09-25T21:31:49.888Z,13.73
2022-09-25T21:34:19.451Z,13.62
2022-09-25T21:36:48.434Z,13.58
2022-09-25T21:39:16.444Z,13.58
2022-09-25T21:41:44.107Z,13.60
2022-09-25T21:44:14.763Z,13.61
2022-09-25T21:46:42.536Z,13.63
2022-09-25T21:49:16.398Z,13.60
2022-09-25T21:51:45.834Z,13.61
2022-09-25T21:54:14.623Z,13.56
2022-09-25T21:56:43.322Z,13.51
2022-09-25T21:59:11.341Z,13.54
2022-09-25T22:01:40.141Z,13.51
2022-09-25T22:04:12.164Z,13.44
2022-09-25T22:06:44.477Z,13.45
2022-09-25T22:09:18.633Z,13.41
2022-09-25T22:11:49.161Z,13.40
2022-09-25T22:14:18.683Z,13.41
2022-09-25T22:16:49.317Z,13.41
2022-09-25T22:19:22.775Z,13.39
2022-09-25T22:21:52.569Z,13.41
2022-09-25T22:24:20.620Z,13.45
2022-09-25T22:26:49.630Z,13.47
2022-09-25T22:29:17.754Z,13.46
2022-09-25T22:31:45.213Z,13.43
2022-09-25T22:34:27.900Z,13.29
2022-09-25T22:36:59.944Z,13.27
2022-09-25T22:39:29.307Z,13.18
2022-09-25T22:41:57.250Z,13.17
2022-09-25T22:44:25.142Z,13.14
2022-09-25T22:46:52.644Z,13.10
2022-09-25T22:49:20.218Z,13.12
2022-09-25T22:51:48.117Z,13.17
2022-09-25T22:54:15.848Z,13.22
2022-09-25T22:56:44.465Z,13.23
2022-09-25T22:59:18.618Z,13.26
2022-09-25T23:01:53.935Z,13.22
2022-09-25T23:04:23.790Z,13.24
2022-09-25T23:06:51.870Z,13.21
2022-09-25T23:09:21.844Z,13.24
2022-09-25T23:11:49.491Z,13.14
2022-09-25T23:14:21.139Z,13.13
2022-09-25T23:16:50.878Z,13.10
2022-09-25T23:19:19.617Z,13.01
2022-09-25T23:21:47.436Z,12.99
2022-09-25T23:24:17.160Z,13.00
2022-09-25T23:26:45.591Z,12.92
2022-09-25T23:29:15.617Z,12.96
2022-09-25T23:31:44.059Z,12.96
2022-09-25T23:34:12.208Z,12.93
2022-09-25T23:36:41.083Z,12.91
2022-09-25T23:39:14.274Z,12.92
2022-09-25T23:41:44.138Z,12.93
2022-09-25T23:44:12.330Z,12.93
2022-09-25T23:46:42.179Z,12.90
2022-09-25T23:49:10.829Z,12.95
2022-09-25T23:51:38.846Z,12.92
2022-09-25T23:54:07.768Z,12.91
2022-09-25T23:56:36.057Z,12.92
2022-09-25T23:59:07.579Z,12.92
